sensor_id;sensor_type;location;lat;lon;timestamp;P1;durP1;ratioP1;P2;durP2;ratioP2
32964;SDS011;19317;48.226;11.686;2023-07-13T00:03:05;6.53;;;3.60;;
32964;SDS011;19317;48.226;11.686;2023-07-13T00:07:55;3.77;;;3.47;;
32964;SDS011;19317;48.226;11.686;2023-07-13T00:12:46;4.77;;;3.27;;
32964;SDS011;19317;48.226;11.686;2023-07-13T00:17:37;4.47;;;3.20;;
32964;SDS011;19317;48.226;11.686;2023-07-13T00:22:28;3.93;;;3.53;;
32964;SDS011;19317;48.226;11.686;2023-07-13T00:27:19;4.33;;;3.60;;
32964;SDS011;19317;48.226;11.686;2023-07-13T00:32:10;5.03;;;3.33;;
32964;SDS011;19317;48.226;11.686;2023-07-13T00:37:01;6.37;;;3.50;;
32964;SDS011;19317;48.226;11.686;2023-07-13T00:41:52;3.60;;;3.30;;
32964;SDS011;19317;48.226;11.686;2023-07-13T00:46:43;4.10;;;3.40;;
32964;SDS011;19317;48.226;11.686;2023-07-13T00:51:39;5.27;;;3.30;;
32964;SDS011;19317;48.226;11.686;2023-07-13T00:56:31;3.77;;;3.33;;
32964;SDS011;19317;48.226;11.686;2023-07-13T01:01:23;3.47;;;3.17;;
32964;SDS011;19317;48.226;11.686;2023-07-13T01:06:14;3.47;;;3.17;;
32964;SDS011;19317;48.226;11.686;2023-07-13T01:11:05;3.53;;;2.90;;
32964;SDS011;19317;48.226;11.686;2023-07-13T01:15:56;3.17;;;2.97;;
32964;SDS011;19317;48.226;11.686;2023-07-13T01:20:53;3.33;;;3.00;;
32964;SDS011;19317;48.226;11.686;2023-07-13T01:25:44;3.77;;;3.13;;
32964;SDS011;19317;48.226;11.686;2023-07-13T01:30:35;4.10;;;3.30;;
32964;SDS011;19317;48.226;11.686;2023-07-13T01:35:26;4.17;;;3.37;;
32964;SDS011;19317;48.226;11.686;2023-07-13T01:40:17;3.87;;;3.13;;
32964;SDS011;19317;48.226;11.686;2023-07-13T01:45:08;3.20;;;2.90;;
32964;SDS011;19317;48.226;11.686;2023-07-13T01:49:59;3.40;;;3.10;;
32964;SDS011;19317;48.226;11.686;2023-07-13T01:54:50;3.87;;;3.20;;
32964;SDS011;19317;48.226;11.686;2023-07-13T01:59:41;5.33;;;3.23;;
32964;SDS011;19317;48.226;11.686;2023-07-13T02:04:32;4.73;;;3.40;;
32964;SDS011;19317;48.226;11.686;2023-07-13T02:09:23;4.00;;;3.60;;
32964;SDS011;19317;48.226;11.686;2023-07-13T02:14:13;4.67;;;3.20;;
32964;SDS011;19317;48.226;11.686;2023-07-13T02:19:04;3.83;;;3.43;;
32964;SDS011;19317;48.226;11.686;2023-07-13T02:23:55;4.20;;;3.33;;
32964;SDS011;19317;48.226;11.686;2023-07-13T02:28:46;3.87;;;3.53;;
32964;SDS011;19317;48.226;11.686;2023-07-13T02:33:37;4.63;;;3.60;;
32964;SDS011;19317;48.226;11.686;2023-07-13T02:38:28;4.13;;;3.50;;
32964;SDS011;19317;48.226;11.686;2023-07-13T02:43:19;3.90;;;3.40;;
32964;SDS011;19317;48.226;11.686;2023-07-13T02:48:10;4.67;;;3.70;;
32964;SDS011;19317;48.226;11.686;2023-07-13T02:53:00;5.97;;;3.97;;
32964;SDS011;19317;48.226;11.686;2023-07-13T02:57:51;4.53;;;4.10;;
32964;SDS011;19317;48.226;11.686;2023-07-13T03:02:42;4.77;;;3.83;;
32964;SDS011;19317;48.226;11.686;2023-07-13T03:07:33;5.30;;;4.00;;
32964;SDS011;19317;48.226;11.686;2023-07-13T03:12:24;6.83;;;4.50;;
32964;SDS011;19317;48.226;11.686;2023-07-13T03:17:15;6.50;;;4.80;;
32964;SDS011;19317;48.226;11.686;2023-07-13T03:22:06;5.10;;;4.60;;
32964;SDS011;19317;48.226;11.686;2023-07-13T03:26:57;4.70;;;4.30;;
32964;SDS011;19317;48.226;11.686;2023-07-13T03:31:48;6.43;;;5.10;;
32964;SDS011;19317;48.226;11.686;2023-07-13T03:36:39;5.37;;;4.87;;
32964;SDS011;19317;48.226;11.686;2023-07-13T03:41:30;4.77;;;4.37;;
32964;SDS011;19317;48.226;11.686;2023-07-13T03:46:20;5.27;;;4.40;;
32964;SDS011;19317;48.226;11.686;2023-07-13T03:51:12;4.97;;;4.47;;
32964;SDS011;19317;48.226;11.686;2023-07-13T03:56:03;10.60;;;4.77;;
32964;SDS011;19317;48.226;11.686;2023-07-13T04:00:54;5.60;;;4.10;;
32964;SDS011;19317;48.226;11.686;2023-07-13T04:05:45;4.90;;;4.17;;
32964;SDS011;19317;48.226;11.686;2023-07-13T04:10:36;4.80;;;4.23;;
32964;SDS011;19317;48.226;11.686;2023-07-13T04:15:29;5.13;;;4.20;;
32964;SDS011;19317;48.226;11.686;2023-07-13T04:20:20;5.17;;;4.27;;
32964;SDS011;19317;48.226;11.686;2023-07-13T04:25:11;5.90;;;4.07;;
32964;SDS011;19317;48.226;11.686;2023-07-13T04:30:02;4.97;;;4.13;;
32964;SDS011;19317;48.226;11.686;2023-07-13T04:34:53;5.13;;;4.10;;
32964;SDS011;19317;48.226;11.686;2023-07-13T04:39:44;5.93;;;4.20;;
32964;SDS011;19317;48.226;11.686;2023-07-13T04:44:35;4.40;;;4.00;;
32964;SDS011;19317;48.226;11.686;2023-07-13T04:49:26;4.40;;;3.97;;
32964;SDS011;19317;48.226;11.686;2023-07-13T04:54:17;5.10;;;4.17;;
32964;SDS011;19317;48.226;11.686;2023-07-13T04:59:08;4.30;;;3.90;;
32964;SDS011;19317;48.226;11.686;2023-07-13T05:03:58;4.33;;;3.90;;
32964;SDS011;19317;48.226;11.686;2023-07-13T05:08:49;4.70;;;3.60;;
32964;SDS011;19317;48.226;11.686;2023-07-13T05:13:40;4.13;;;3.70;;
32964;SDS011;19317;48.226;11.686;2023-07-13T05:18:31;6.50;;;4.07;;
32964;SDS011;19317;48.226;11.686;2023-07-13T05:23:22;5.10;;;3.73;;
32964;SDS011;19317;48.226;11.686;2023-07-13T05:28:13;5.97;;;3.70;;
32964;SDS011;19317;48.226;11.686;2023-07-13T05:33:04;4.00;;;3.60;;
32964;SDS011;19317;48.226;11.686;2023-07-13T05:37:55;4.60;;;3.40;;
32964;SDS011;19317;48.226;11.686;2023-07-13T05:42:45;5.50;;;3.80;;
32964;SDS011;19317;48.226;11.686;2023-07-13T05:47:36;3.67;;;3.30;;
32964;SDS011;19317;48.226;11.686;2023-07-13T05:52:27;4.20;;;3.80;;
32964;SDS011;19317;48.226;11.686;2023-07-13T05:57:18;5.73;;;3.70;;
32964;SDS011;19317;48.226;11.686;2023-07-13T06:02:09;4.07;;;3.53;;
32964;SDS011;19317;48.226;11.686;2023-07-13T06:07:00;5.13;;;3.40;;
32964;SDS011;19317;48.226;11.686;2023-07-13T06:11:51;4.10;;;3.70;;
32964;SDS011;19317;48.226;11.686;2023-07-13T06:16:42;4.90;;;3.93;;
32964;SDS011;19317;48.226;11.686;2023-07-13T06:21:33;4.80;;;3.80;;
32964;SDS011;19317;48.226;11.686;2023-07-13T06:26:24;6.90;;;4.07;;
32964;SDS011;19317;48.226;11.686;2023-07-13T06:31:15;5.30;;;3.80;;
32964;SDS011;19317;48.226;11.686;2023-07-13T06:36:06;4.67;;;3.53;;
32964;SDS011;19317;48.226;11.686;2023-07-13T06:40:57;4.27;;;3.33;;
32964;SDS011;19317;48.226;11.686;2023-07-13T06:45:48;4.10;;;3.20;;
32964;SDS011;19317;48.226;11.686;2023-07-13T06:50:40;4.80;;;3.27;;
32964;SDS011;19317;48.226;11.686;2023-07-13T06:55:31;5.87;;;3.00;;
32964;SDS011;19317;48.226;11.686;2023-07-13T07:00:22;3.93;;;3.23;;
32964;SDS011;19317;48.226;11.686;2023-07-13T07:05:13;4.10;;;3.10;;
32964;SDS011;19317;48.226;11.686;2023-07-13T07:10:04;5.80;;;3.37;;
32964;SDS011;19317;48.226;11.686;2023-07-13T07:14:55;5.93;;;3.63;;
32964;SDS011;19317;48.226;11.686;2023-07-13T07:19:46;5.60;;;3.40;;
32964;SDS011;19317;48.226;11.686;2023-07-13T07:24:37;6.17;;;3.37;;
32964;SDS011;19317;48.226;11.686;2023-07-13T07:29:27;3.37;;;3.00;;
32964;SDS011;19317;48.226;11.686;2023-07-13T07:34:18;4.17;;;2.93;;
32964;SDS011;19317;48.226;11.686;2023-07-13T07:39:09;4.27;;;2.87;;
32964;SDS011;19317;48.226;11.686;2023-07-13T07:44:00;5.40;;;2.73;;
32964;SDS011;19317;48.226;11.686;2023-07-13T07:48:52;3.80;;;2.87;;
32964;SDS011;19317;48.226;11.686;2023-07-13T07:53:43;4.23;;;2.90;;
32964;SDS011;19317;48.226;11.686;2023-07-13T07:58:34;5.50;;;3.03;;
32964;SDS011;19317;48.226;11.686;2023-07-13T08:03:25;4.87;;;3.00;;
32964;SDS011;19317;48.226;11.686;2023-07-13T08:08:16;3.00;;;2.80;;
32964;SDS011;19317;48.226;11.686;2023-07-13T08:13:06;3.70;;;2.80;;
32964;SDS011;19317;48.226;11.686;2023-07-13T08:17:57;3.90;;;2.87;;
32964;SDS011;19317;48.226;11.686;2023-07-13T08:22:48;4.93;;;3.00;;
32964;SDS011;19317;48.226;11.686;2023-07-13T08:27:39;3.80;;;2.60;;
32964;SDS011;19317;48.226;11.686;2023-07-13T08:32:30;5.13;;;3.10;;
32964;SDS011;19317;48.226;11.686;2023-07-13T08:37:21;4.03;;;2.83;;
32964;SDS011;19317;48.226;11.686;2023-07-13T08:42:18;5.87;;;2.87;;
32964;SDS011;19317;48.226;11.686;2023-07-13T08:47:14;6.13;;;2.80;;
32964;SDS011;19317;48.226;11.686;2023-07-13T08:52:11;3.10;;;2.60;;
32964;SDS011;19317;48.226;11.686;2023-07-13T08:57:13;3.53;;;2.70;;
32964;SDS011;19317;48.226;11.686;2023-07-13T09:02:23;3.37;;;2.67;;
32964;SDS011;19317;48.226;11.686;2023-07-13T09:12:11;5.67;;;3.03;;
32964;SDS011;19317;48.226;11.686;2023-07-13T09:17:07;2.97;;;2.50;;
32964;SDS011;19317;48.226;11.686;2023-07-13T09:22:02;4.03;;;2.43;;
32964;SDS011;19317;48.226;11.686;2023-07-13T09:26:55;4.07;;;2.50;;
32964;SDS011;19317;48.226;11.686;2023-07-13T09:31:47;4.43;;;2.43;;
32964;SDS011;19317;48.226;11.686;2023-07-13T09:36:40;4.60;;;2.40;;
32964;SDS011;19317;48.226;11.686;2023-07-13T09:46:27;6.10;;;2.47;;
32964;SDS011;19317;48.226;11.686;2023-07-13T09:51:18;2.97;;;2.37;;
32964;SDS011;19317;48.226;11.686;2023-07-13T09:56:19;4.20;;;2.50;;
32964;SDS011;19317;48.226;11.686;2023-07-13T10:01:10;3.83;;;2.20;;
32964;SDS011;19317;48.226;11.686;2023-07-13T10:06:09;3.73;;;2.30;;
32964;SDS011;19317;48.226;11.686;2023-07-13T10:16:07;4.17;;;2.43;;
32964;SDS011;19317;48.226;11.686;2023-07-13T10:21:08;3.27;;;2.37;;
32964;SDS011;19317;48.226;11.686;2023-07-13T10:26:00;3.43;;;2.07;;
32964;SDS011;19317;48.226;11.686;2023-07-13T10:30:51;3.77;;;2.43;;
32964;SDS011;19317;48.226;11.686;2023-07-13T10:35:43;3.07;;;2.40;;
32964;SDS011;19317;48.226;11.686;2023-07-13T10:45:29;2.57;;;2.20;;
32964;SDS011;19317;48.226;11.686;2023-07-13T10:50:25;4.47;;;2.30;;
32964;SDS011;19317;48.226;11.686;2023-07-13T11:00:23;3.77;;;2.47;;
32964;SDS011;19317;48.226;11.686;2023-07-13T11:05:30;6.50;;;2.50;;
32964;SDS011;19317;48.226;11.686;2023-07-13T11:10:46;5.33;;;2.57;;
32964;SDS011;19317;48.226;11.686;2023-07-13T11:15:44;5.90;;;2.70;;
32964;SDS011;19317;48.226;11.686;2023-07-13T11:20:37;2.60;;;2.37;;
32964;SDS011;19317;48.226;11.686;2023-07-13T11:25:31;4.00;;;2.60;;
32964;SDS011;19317;48.226;11.686;2023-07-13T11:30:23;3.90;;;2.20;;
32964;SDS011;19317;48.226;11.686;2023-07-13T11:35:16;3.80;;;2.33;;
32964;SDS011;19317;48.226;11.686;2023-07-13T11:40:13;3.80;;;2.27;;
32964;SDS011;19317;48.226;11.686;2023-07-13T11:45:12;3.90;;;2.67;;
32964;SDS011;19317;48.226;11.686;2023-07-13T11:50:16;4.87;;;2.60;;
32964;SDS011;19317;48.226;11.686;2023-07-13T11:55:14;2.80;;;2.07;;
32964;SDS011;19317;48.226;11.686;2023-07-13T12:00:11;2.63;;;2.00;;
32964;SDS011;19317;48.226;11.686;2023-07-13T12:05:03;3.33;;;2.20;;
32964;SDS011;19317;48.226;11.686;2023-07-13T12:10:00;3.33;;;2.40;;
32964;SDS011;19317;48.226;11.686;2023-07-13T12:14:51;3.57;;;2.03;;
32964;SDS011;19317;48.226;11.686;2023-07-13T12:19:42;3.23;;;2.40;;
32964;SDS011;19317;48.226;11.686;2023-07-13T12:24:33;4.30;;;2.40;;
32964;SDS011;19317;48.226;11.686;2023-07-13T12:29:24;2.47;;;2.27;;
32964;SDS011;19317;48.226;11.686;2023-07-13T12:34:16;2.97;;;2.33;;
32964;SDS011;19317;48.226;11.686;2023-07-13T12:39:15;3.90;;;2.53;;
32964;SDS011;19317;48.226;11.686;2023-07-13T12:44:11;3.33;;;2.60;;
32964;SDS011;19317;48.226;11.686;2023-07-13T12:49:04;4.17;;;2.30;;
32964;SDS011;19317;48.226;11.686;2023-07-13T12:54:13;4.00;;;2.50;;
32964;SDS011;19317;48.226;11.686;2023-07-13T12:59:05;4.17;;;2.60;;
32964;SDS011;19317;48.226;11.686;2023-07-13T13:03:56;4.57;;;2.60;;
32964;SDS011;19317;48.226;11.686;2023-07-13T13:08:55;4.37;;;2.80;;
32964;SDS011;19317;48.226;11.686;2023-07-13T13:13:46;4.23;;;2.40;;
32964;SDS011;19317;48.226;11.686;2023-07-13T13:18:37;2.40;;;2.10;;
32964;SDS011;19317;48.226;11.686;2023-07-13T13:23:28;2.90;;;2.23;;
32964;SDS011;19317;48.226;11.686;2023-07-13T13:28:20;4.93;;;2.50;;
32964;SDS011;19317;48.226;11.686;2023-07-13T13:33:11;2.67;;;2.13;;
32964;SDS011;19317;48.226;11.686;2023-07-13T13:38:04;4.67;;;2.20;;
32964;SDS011;19317;48.226;11.686;2023-07-13T13:42:59;5.60;;;2.40;;
32964;SDS011;19317;48.226;11.686;2023-07-13T13:47:50;2.97;;;2.20;;
32964;SDS011;19317;48.226;11.686;2023-07-13T13:52:41;5.37;;;2.33;;
32964;SDS011;19317;48.226;11.686;2023-07-13T13:57:32;3.90;;;2.30;;
32964;SDS011;19317;48.226;11.686;2023-07-13T14:02:26;2.80;;;2.20;;
32964;SDS011;19317;48.226;11.686;2023-07-13T14:07:18;5.73;;;2.30;;
32964;SDS011;19317;48.226;11.686;2023-07-13T14:12:09;5.10;;;2.27;;
32964;SDS011;19317;48.226;11.686;2023-07-13T14:17:00;4.70;;;2.37;;
32964;SDS011;19317;48.226;11.686;2023-07-13T14:21:51;3.53;;;2.37;;
32964;SDS011;19317;48.226;11.686;2023-07-13T14:26:42;3.10;;;2.30;;
32964;SDS011;19317;48.226;11.686;2023-07-13T14:31:33;5.27;;;2.20;;
32964;SDS011;19317;48.226;11.686;2023-07-13T14:41:15;5.07;;;2.23;;
32964;SDS011;19317;48.226;11.686;2023-07-13T14:46:07;3.83;;;2.40;;
32964;SDS011;19317;48.226;11.686;2023-07-13T14:51:07;2.37;;;2.17;;
32964;SDS011;19317;48.226;11.686;2023-07-13T14:55:58;2.83;;;2.10;;
32964;SDS011;19317;48.226;11.686;2023-07-13T15:00:49;3.00;;;2.10;;
32964;SDS011;19317;48.226;11.686;2023-07-13T15:05:40;3.10;;;2.43;;
32964;SDS011;19317;48.226;11.686;2023-07-13T15:10:32;3.77;;;2.30;;
32964;SDS011;19317;48.226;11.686;2023-07-13T15:15:23;3.50;;;2.17;;
32964;SDS011;19317;48.226;11.686;2023-07-13T15:25:18;2.43;;;2.20;;
32964;SDS011;19317;48.226;11.686;2023-07-13T15:30:10;3.10;;;2.23;;
32964;SDS011;19317;48.226;11.686;2023-07-13T15:35:01;4.73;;;2.20;;
32964;SDS011;19317;48.226;11.686;2023-07-13T15:39:51;3.47;;;2.30;;
32964;SDS011;19317;48.226;11.686;2023-07-13T15:44:42;4.60;;;2.20;;
32964;SDS011;19317;48.226;11.686;2023-07-13T15:49:33;3.20;;;2.30;;
32964;SDS011;19317;48.226;11.686;2023-07-13T15:54:24;4.53;;;2.43;;
32964;SDS011;19317;48.226;11.686;2023-07-13T15:59:15;2.80;;;2.50;;
32964;SDS011;19317;48.226;11.686;2023-07-13T16:04:06;4.57;;;2.33;;
32964;SDS011;19317;48.226;11.686;2023-07-13T16:08:57;4.53;;;2.77;;
32964;SDS011;19317;48.226;11.686;2023-07-13T16:13:48;2.43;;;2.10;;
32964;SDS011;19317;48.226;11.686;2023-07-13T16:18:39;2.40;;;2.10;;
32964;SDS011;19317;48.226;11.686;2023-07-13T16:23:30;4.67;;;2.43;;
32964;SDS011;19317;48.226;11.686;2023-07-13T16:28:22;4.37;;;2.20;;
32964;SDS011;19317;48.226;11.686;2023-07-13T16:33:13;3.50;;;2.10;;
32964;SDS011;19317;48.226;11.686;2023-07-13T16:38:14;6.30;;;2.53;;
32964;SDS011;19317;48.226;11.686;2023-07-13T16:43:05;2.47;;;2.13;;
32964;SDS011;19317;48.226;11.686;2023-07-13T16:47:56;2.77;;;2.33;;
32964;SDS011;19317;48.226;11.686;2023-07-13T16:52:48;2.43;;;2.23;;
32964;SDS011;19317;48.226;11.686;2023-07-13T16:57:39;3.10;;;2.50;;
32964;SDS011;19317;48.226;11.686;2023-07-13T17:02:31;2.50;;;2.10;;
32964;SDS011;19317;48.226;11.686;2023-07-13T17:07:23;3.73;;;2.47;;
32964;SDS011;19317;48.226;11.686;2023-07-13T17:12:14;2.87;;;2.00;;
32964;SDS011;19317;48.226;11.686;2023-07-13T17:17:05;3.10;;;2.20;;
32964;SDS011;19317;48.226;11.686;2023-07-13T17:22:00;2.70;;;2.50;;
32964;SDS011;19317;48.226;11.686;2023-07-13T17:26:51;3.93;;;3.47;;
32964;SDS011;19317;48.226;11.686;2023-07-13T17:31:42;5.77;;;3.03;;
32964;SDS011;19317;48.226;11.686;2023-07-13T17:36:33;3.07;;;2.43;;
32964;SDS011;19317;48.226;11.686;2023-07-13T17:41:24;4.17;;;2.53;;
32964;SDS011;19317;48.226;11.686;2023-07-13T17:46:20;3.97;;;2.43;;
32964;SDS011;19317;48.226;11.686;2023-07-13T17:51:15;3.33;;;2.60;;
32964;SDS011;19317;48.226;11.686;2023-07-13T17:56:06;4.63;;;2.50;;
32964;SDS011;19317;48.226;11.686;2023-07-13T18:00:56;3.67;;;2.37;;
32964;SDS011;19317;48.226;11.686;2023-07-13T18:05:48;2.97;;;2.40;;
32964;SDS011;19317;48.226;11.686;2023-07-13T18:10:39;2.43;;;2.23;;
32964;SDS011;19317;48.226;11.686;2023-07-13T18:15:30;5.57;;;2.67;;
32964;SDS011;19317;48.226;11.686;2023-07-13T18:20:21;3.17;;;2.60;;
32964;SDS011;19317;48.226;11.686;2023-07-13T18:25:13;3.27;;;2.40;;
32964;SDS011;19317;48.226;11.686;2023-07-13T18:30:05;3.60;;;2.70;;
32964;SDS011;19317;48.226;11.686;2023-07-13T18:34:56;2.70;;;2.43;;
32964;SDS011;19317;48.226;11.686;2023-07-13T18:39:50;3.50;;;2.53;;
32964;SDS011;19317;48.226;11.686;2023-07-13T18:44:41;4.47;;;2.40;;
32964;SDS011;19317;48.226;11.686;2023-07-13T18:49:32;2.70;;;2.30;;
32964;SDS011;19317;48.226;11.686;2023-07-13T18:54:23;4.27;;;2.60;;
32964;SDS011;19317;48.226;11.686;2023-07-13T18:59:14;3.43;;;2.80;;
32964;SDS011;19317;48.226;11.686;2023-07-13T19:09:14;3.63;;;2.50;;
32964;SDS011;19317;48.226;11.686;2023-07-13T19:14:10;4.17;;;2.47;;
32964;SDS011;19317;48.226;11.686;2023-07-13T19:19:04;2.83;;;2.40;;
32964;SDS011;19317;48.226;11.686;2023-07-13T19:23:55;5.23;;;3.20;;
32964;SDS011;19317;48.226;11.686;2023-07-13T19:28:47;6.07;;;3.23;;
32964;SDS011;19317;48.226;11.686;2023-07-13T19:33:39;3.30;;;2.90;;
32964;SDS011;19317;48.226;11.686;2023-07-13T19:38:30;5.30;;;3.37;;
32964;SDS011;19317;48.226;11.686;2023-07-13T19:43:21;3.53;;;2.73;;
32964;SDS011;19317;48.226;11.686;2023-07-13T19:48:12;5.97;;;5.30;;
32964;SDS011;19317;48.226;11.686;2023-07-13T19:53:03;5.73;;;3.50;;
32964;SDS011;19317;48.226;11.686;2023-07-13T19:57:55;4.43;;;3.50;;
32964;SDS011;19317;48.226;11.686;2023-07-13T20:02:46;5.50;;;3.10;;
32964;SDS011;19317;48.226;11.686;2023-07-13T20:07:36;5.87;;;4.50;;
32964;SDS011;19317;48.226;11.686;2023-07-13T20:12:27;6.70;;;6.00;;
32964;SDS011;19317;48.226;11.686;2023-07-13T20:17:24;5.33;;;2.90;;
32964;SDS011;19317;48.226;11.686;2023-07-13T20:22:18;4.13;;;2.50;;
32964;SDS011;19317;48.226;11.686;2023-07-13T20:27:09;4.80;;;2.80;;
32964;SDS011;19317;48.226;11.686;2023-07-13T20:32:00;4.03;;;2.47;;
32964;SDS011;19317;48.226;11.686;2023-07-13T20:36:51;5.07;;;3.93;;
32964;SDS011;19317;48.226;11.686;2023-07-13T20:41:43;5.33;;;3.30;;
32964;SDS011;19317;48.226;11.686;2023-07-13T20:46:34;5.30;;;2.90;;
32964;SDS011;19317;48.226;11.686;2023-07-13T20:51:25;6.23;;;2.67;;
32964;SDS011;19317;48.226;11.686;2023-07-13T20:56:16;4.43;;;2.80;;
32964;SDS011;19317;48.226;11.686;2023-07-13T21:06:13;3.57;;;3.20;;
32964;SDS011;19317;48.226;11.686;2023-07-13T21:11:05;5.13;;;2.90;;
32964;SDS011;19317;48.226;11.686;2023-07-13T21:15:56;4.43;;;3.00;;
32964;SDS011;19317;48.226;11.686;2023-07-13T21:20:48;3.93;;;3.10;;
32964;SDS011;19317;48.226;11.686;2023-07-13T21:25:39;5.17;;;3.00;;
32964;SDS011;19317;48.226;11.686;2023-07-13T21:30:40;3.03;;;2.70;;
32964;SDS011;19317;48.226;11.686;2023-07-13T21:35:32;3.63;;;2.80;;
32964;SDS011;19317;48.226;11.686;2023-07-13T21:40:24;4.60;;;3.07;;
32964;SDS011;19317;48.226;11.686;2023-07-13T21:45:26;3.20;;;2.90;;
32964;SDS011;19317;48.226;11.686;2023-07-13T21:50:18;3.30;;;2.97;;
32964;SDS011;19317;48.226;11.686;2023-07-13T21:55:12;4.63;;;3.13;;
32964;SDS011;19317;48.226;11.686;2023-07-13T22:00:03;3.00;;;2.70;;
32964;SDS011;19317;48.226;11.686;2023-07-13T22:04:54;3.93;;;2.93;;
32964;SDS011;19317;48.226;11.686;2023-07-13T22:09:45;3.27;;;2.97;;
32964;SDS011;19317;48.226;11.686;2023-07-13T22:14:36;3.13;;;2.83;;
32964;SDS011;19317;48.226;11.686;2023-07-13T22:19:27;3.07;;;2.77;;
32964;SDS011;19317;48.226;11.686;2023-07-13T22:24:19;2.80;;;2.60;;
32964;SDS011;19317;48.226;11.686;2023-07-13T22:29:15;4.17;;;2.97;;
32964;SDS011;19317;48.226;11.686;2023-07-13T22:34:09;3.60;;;2.87;;
32964;SDS011;19317;48.226;11.686;2023-07-13T22:38:59;3.27;;;2.93;;
32964;SDS011;19317;48.226;11.686;2023-07-13T22:43:50;5.23;;;2.80;;
32964;SDS011;19317;48.226;11.686;2023-07-13T22:53:33;4.17;;;3.00;;
32964;SDS011;19317;48.226;11.686;2023-07-13T22:58:24;4.00;;;2.90;;
32964;SDS011;19317;48.226;11.686;2023-07-13T23:03:15;2.77;;;2.50;;
32964;SDS011;19317;48.226;11.686;2023-07-13T23:08:13;3.60;;;2.77;;
32964;SDS011;19317;48.226;11.686;2023-07-13T23:13:04;5.30;;;3.33;;
32964;SDS011;19317;48.226;11.686;2023-07-13T23:17:55;5.30;;;3.90;;
32964;SDS011;19317;48.226;11.686;2023-07-13T23:22:46;3.33;;;3.00;;
32964;SDS011;19317;48.226;11.686;2023-07-13T23:27:37;4.43;;;3.10;;
32964;SDS011;19317;48.226;11.686;2023-07-13T23:32:28;4.57;;;3.40;;
32964;SDS011;19317;48.226;11.686;2023-07-13T23:37:18;3.77;;;3.23;;
32964;SDS011;19317;48.226;11.686;2023-07-13T23:42:09;3.50;;;3.20;;
32964;SDS011;19317;48.226;11.686;2023-07-13T23:47:00;3.43;;;2.73;;
32964;SDS011;19317;48.226;11.686;2023-07-13T23:51:52;3.37;;;2.77;;
32964;SDS011;19317;48.226;11.686;2023-07-13T23:56:44;4.83;;;3.20;;
